sensor_id;sensor_type;location;lat;lon;timestamp;temperature;humidity
20284;DHT22;10301;50.832;4.080;2023-05-10T00:00:40;14.40;99.90
20284;DHT22;10301;50.832;4.080;2023-05-10T00:03:06;14.40;99.90
20284;DHT22;10301;50.832;4.080;2023-05-10T00:05:32;14.50;99.90
20284;DHT22;10301;50.832;4.080;2023-05-10T00:07:58;14.50;99.90
20284;DHT22;10301;50.832;4.080;2023-05-10T00:10:23;14.40;99.90
20284;DHT22;10301;50.832;4.080;2023-05-10T00:12:49;14.30;99.90
20284;DHT22;10301;50.832;4.080;2023-05-10T00:15:15;14.30;99.90
20284;DHT22;10301;50.832;4.080;2023-05-10T00:17:40;14.30;99.90
20284;DHT22;10301;50.832;4.080;2023-05-10T00:20:06;14.40;99.90
20284;DHT22;10301;50.832;4.080;2023-05-10T00:22:32;14.50;99.90
20284;DHT22;10301;50.832;4.080;2023-05-10T00:24:58;14.60;99.90
20284;DHT22;10301;50.832;4.080;2023-05-10T00:27:24;14.50;99.90
20284;DHT22;10301;50.832;4.080;2023-05-10T00:29:50;14.40;99.90
20284;DHT22;10301;50.832;4.080;2023-05-10T00:32:15;14.30;99.90
20284;DHT22;10301;50.832;4.080;2023-05-10T00:34:42;14.30;99.90
20284;DHT22;10301;50.832;4.080;2023-05-10T00:37:07;14.10;99.90
20284;DHT22;10301;50.832;4.080;2023-05-10T00:39:33;14.10;99.90
20284;DHT22;10301;50.832;4.080;2023-05-10T00:41:59;14.10;99.90
20284;DHT22;10301;50.832;4.080;2023-05-10T00:44:25;14.10;99.90
20284;DHT22;10301;50.832;4.080;2023-05-10T00:46:51;14.10;99.90
20284;DHT22;10301;50.832;4.080;2023-05-10T00:49:17;14.00;99.90
20284;DHT22;10301;50.832;4.080;2023-05-10T00:51:44;14.10;99.90
20284;DHT22;10301;50.832;4.080;2023-05-10T00:54:14;14.00;99.90
20284;DHT22;10301;50.832;4.080;2023-05-10T00:56:41;13.90;99.90
20284;DHT22;10301;50.832;4.080;2023-05-10T00:59:08;14.00;99.90
20284;DHT22;10301;50.832;4.080;2023-05-10T01:01:34;14.10;99.90
20284;DHT22;10301;50.832;4.080;2023-05-10T01:04:00;14.20;99.90
20284;DHT22;10301;50.832;4.080;2023-05-10T01:06:27;14.00;99.90
20284;DHT22;10301;50.832;4.080;2023-05-10T01:08:53;13.80;99.90
20284;DHT22;10301;50.832;4.080;2023-05-10T01:11:18;13.80;99.90
20284;DHT22;10301;50.832;4.080;2023-05-10T01:13:47;14.00;99.90
20284;DHT22;10301;50.832;4.080;2023-05-10T01:16:16;13.90;99.90
20284;DHT22;10301;50.832;4.080;2023-05-10T01:18:43;13.80;99.90
20284;DHT22;10301;50.832;4.080;2023-05-10T01:24:37;13.70;99.90
20284;DHT22;10301;50.832;4.080;2023-05-10T01:27:13;13.90;99.90
20284;DHT22;10301;50.832;4.080;2023-05-10T01:37:50;14.00;99.90
20284;DHT22;10301;50.832;4.080;2023-05-10T01:40:36;14.10;99.90
20284;DHT22;10301;50.832;4.080;2023-05-10T01:43:05;14.10;99.90
20284;DHT22;10301;50.832;4.080;2023-05-10T01:45:59;14.10;99.90
20284;DHT22;10301;50.832;4.080;2023-05-10T01:48:28;14.10;99.90
20284;DHT22;10301;50.832;4.080;2023-05-10T01:50:55;14.00;99.90
20284;DHT22;10301;50.832;4.080;2023-05-10T01:53:22;14.00;99.90
20284;DHT22;10301;50.832;4.080;2023-05-10T01:55:52;14.00;99.90
20284;DHT22;10301;50.832;4.080;2023-05-10T01:58:27;14.10;99.90
20284;DHT22;10301;50.832;4.080;2023-05-10T02:00:54;14.20;99.90
20284;DHT22;10301;50.832;4.080;2023-05-10T02:03:23;14.30;99.90
20284;DHT22;10301;50.832;4.080;2023-05-10T02:05:49;14.20;99.90
20284;DHT22;10301;50.832;4.080;2023-05-10T02:08:17;14.10;99.90
20284;DHT22;10301;50.832;4.080;2023-05-10T02:10:45;14.10;99.90
20284;DHT22;10301;50.832;4.080;2023-05-10T02:13:12;14.10;99.90
20284;DHT22;10301;50.832;4.080;2023-05-10T02:15:40;14.10;99.90
20284;DHT22;10301;50.832;4.080;2023-05-10T02:18:07;14.30;99.90
20284;DHT22;10301;50.832;4.080;2023-05-10T02:20:34;14.30;99.90
20284;DHT22;10301;50.832;4.080;2023-05-10T02:23:02;14.20;99.90
20284;DHT22;10301;50.832;4.080;2023-05-10T02:25:29;14.10;99.90
20284;DHT22;10301;50.832;4.080;2023-05-10T02:27:56;14.20;99.90
20284;DHT22;10301;50.832;4.080;2023-05-10T02:30:23;14.20;99.90
20284;DHT22;10301;50.832;4.080;2023-05-10T02:32:50;13.90;99.90
20284;DHT22;10301;50.832;4.080;2023-05-10T02:35:17;13.90;99.90
20284;DHT22;10301;50.832;4.080;2023-05-10T02:37:43;14.00;99.90
20284;DHT22;10301;50.832;4.080;2023-05-10T02:40:11;14.20;99.90
20284;DHT22;10301;50.832;4.080;2023-05-10T02:42:38;14.20;99.90
20284;DHT22;10301;50.832;4.080;2023-05-10T02:45:10;14.40;99.90
20284;DHT22;10301;50.832;4.080;2023-05-10T02:47:37;14.20;99.90
20284;DHT22;10301;50.832;4.080;2023-05-10T02:50:03;14.30;99.90
20284;DHT22;10301;50.832;4.080;2023-05-10T02:52:58;14.30;99.90
20284;DHT22;10301;50.832;4.080;2023-05-10T02:55:27;14.40;99.90
20284;DHT22;10301;50.832;4.080;2023-05-10T02:58:00;14.40;99.90
20284;DHT22;10301;50.832;4.080;2023-05-10T03:00:26;14.50;99.90
20284;DHT22;10301;50.832;4.080;2023-05-10T03:02:52;14.50;99.90
20284;DHT22;10301;50.832;4.080;2023-05-10T03:05:19;14.50;99.90
20284;DHT22;10301;50.832;4.080;2023-05-10T03:07:45;14.30;99.90
20284;DHT22;10301;50.832;4.080;2023-05-10T03:10:11;14.40;99.90
20284;DHT22;10301;50.832;4.080;2023-05-10T03:15:37;14.40;99.90
20284;DHT22;10301;50.832;4.080;2023-05-10T03:18:20;14.50;99.90
20284;DHT22;10301;50.832;4.080;2023-05-10T03:20:51;14.50;99.90
20284;DHT22;10301;50.832;4.080;2023-05-10T03:23:22;14.50;99.90
20284;DHT22;10301;50.832;4.080;2023-05-10T03:25:50;14.50;99.90
20284;DHT22;10301;50.832;4.080;2023-05-10T03:28:18;14.50;99.90
20284;DHT22;10301;50.832;4.080;2023-05-10T03:30:44;14.60;99.90
20284;DHT22;10301;50.832;4.080;2023-05-10T03:33:13;14.60;99.90
20284;DHT22;10301;50.832;4.080;2023-05-10T03:35:39;14.50;99.90
20284;DHT22;10301;50.832;4.080;2023-05-10T03:38:05;14.60;99.90
20284;DHT22;10301;50.832;4.080;2023-05-10T03:40:30;14.50;99.90
20284;DHT22;10301;50.832;4.080;2023-05-10T03:42:58;14.50;99.90
20284;DHT22;10301;50.832;4.080;2023-05-10T03:45:24;14.50;99.90
20284;DHT22;10301;50.832;4.080;2023-05-10T03:47:49;14.50;99.90
20284;DHT22;10301;50.832;4.080;2023-05-10T03:50:15;14.50;99.90
20284;DHT22;10301;50.832;4.080;2023-05-10T03:52:40;14.50;99.90
20284;DHT22;10301;50.832;4.080;2023-05-10T03:55:07;14.40;99.90
20284;DHT22;10301;50.832;4.080;2023-05-10T03:57:33;14.40;99.90
20284;DHT22;10301;50.832;4.080;2023-05-10T03:59:59;14.50;99.70
20284;DHT22;10301;50.832;4.080;2023-05-10T04:02:25;14.60;98.60
20284;DHT22;10301;50.832;4.080;2023-05-10T04:04:50;14.50;98.40
20284;DHT22;10301;50.832;4.080;2023-05-10T04:07:16;14.20;99.90
20284;DHT22;10301;50.832;4.080;2023-05-10T04:09:42;14.20;99.90
20284;DHT22;10301;50.832;4.080;2023-05-10T04:12:08;14.10;99.90
20284;DHT22;10301;50.832;4.080;2023-05-10T04:14:33;14.00;99.90
20284;DHT22;10301;50.832;4.080;2023-05-10T04:16:59;13.90;99.90
20284;DHT22;10301;50.832;4.080;2023-05-10T04:19:29;13.90;99.90
20284;DHT22;10301;50.832;4.080;2023-05-10T04:21:55;13.70;99.90
20284;DHT22;10301;50.832;4.080;2023-05-10T04:24:21;13.70;99.90
20284;DHT22;10301;50.832;4.080;2023-05-10T04:26:46;13.70;99.90
20284;DHT22;10301;50.832;4.080;2023-05-10T04:29:12;13.50;99.90
20284;DHT22;10301;50.832;4.080;2023-05-10T04:31:38;13.50;99.90
20284;DHT22;10301;50.832;4.080;2023-05-10T04:34:03;13.40;99.90
20284;DHT22;10301;50.832;4.080;2023-05-10T04:36:29;13.30;99.90
20284;DHT22;10301;50.832;4.080;2023-05-10T04:38:55;13.40;99.90
20284;DHT22;10301;50.832;4.080;2023-05-10T04:41:20;13.40;99.90
20284;DHT22;10301;50.832;4.080;2023-05-10T04:43:46;13.50;99.90
20284;DHT22;10301;50.832;4.080;2023-05-10T04:46:14;13.70;99.90
20284;DHT22;10301;50.832;4.080;2023-05-10T04:48:40;13.60;99.90
20284;DHT22;10301;50.832;4.080;2023-05-10T04:51:05;13.60;99.90
20284;DHT22;10301;50.832;4.080;2023-05-10T04:53:32;13.50;99.90
20284;DHT22;10301;50.832;4.080;2023-05-10T04:55:57;13.40;99.90
20284;DHT22;10301;50.832;4.080;2023-05-10T04:58:23;13.50;99.90
20284;DHT22;10301;50.832;4.080;2023-05-10T05:00:49;13.40;99.90
20284;DHT22;10301;50.832;4.080;2023-05-10T05:03:15;13.40;99.90
20284;DHT22;10301;50.832;4.080;2023-05-10T05:05:41;13.30;99.90
20284;DHT22;10301;50.832;4.080;2023-05-10T05:08:07;13.30;99.90
20284;DHT22;10301;50.832;4.080;2023-05-10T05:10:32;13.40;99.90
20284;DHT22;10301;50.832;4.080;2023-05-10T05:12:58;13.30;99.90
20284;DHT22;10301;50.832;4.080;2023-05-10T05:15:24;13.30;99.90
20284;DHT22;10301;50.832;4.080;2023-05-10T05:17:49;13.40;99.90
20284;DHT22;10301;50.832;4.080;2023-05-10T05:20:15;13.40;99.90
20284;DHT22;10301;50.832;4.080;2023-05-10T05:22:41;13.50;99.90
20284;DHT22;10301;50.832;4.080;2023-05-10T05:25:07;13.50;99.90
20284;DHT22;10301;50.832;4.080;2023-05-10T05:27:32;13.60;99.90
20284;DHT22;10301;50.832;4.080;2023-05-10T05:29:58;13.70;99.90
20284;DHT22;10301;50.832;4.080;2023-05-10T05:32:25;13.90;99.90
20284;DHT22;10301;50.832;4.080;2023-05-10T05:34:50;13.90;99.90
20284;DHT22;10301;50.832;4.080;2023-05-10T05:37:18;13.90;99.90
20284;DHT22;10301;50.832;4.080;2023-05-10T05:39:44;13.90;99.90
20284;DHT22;10301;50.832;4.080;2023-05-10T05:42:11;13.80;99.90
20284;DHT22;10301;50.832;4.080;2023-05-10T05:44:37;13.80;99.90
20284;DHT22;10301;50.832;4.080;2023-05-10T05:47:03;13.70;99.90
20284;DHT22;10301;50.832;4.080;2023-05-10T05:49:29;13.80;99.90
20284;DHT22;10301;50.832;4.080;2023-05-10T05:51:59;13.80;99.90
20284;DHT22;10301;50.832;4.080;2023-05-10T05:54:26;13.90;99.90
20284;DHT22;10301;50.832;4.080;2023-05-10T05:56:54;13.80;99.90
20284;DHT22;10301;50.832;4.080;2023-05-10T05:59:20;13.70;99.90
20284;DHT22;10301;50.832;4.080;2023-05-10T06:01:46;13.80;99.90
20284;DHT22;10301;50.832;4.080;2023-05-10T06:04:12;13.90;99.90
20284;DHT22;10301;50.832;4.080;2023-05-10T06:06:38;13.90;99.90
20284;DHT22;10301;50.832;4.080;2023-05-10T06:09:04;14.00;99.90
20284;DHT22;10301;50.832;4.080;2023-05-10T06:11:29;14.00;99.90
20284;DHT22;10301;50.832;4.080;2023-05-10T06:13:57;14.10;99.90
20284;DHT22;10301;50.832;4.080;2023-05-10T06:16:23;14.10;99.90
20284;DHT22;10301;50.832;4.080;2023-05-10T06:18:49;14.10;99.90
20284;DHT22;10301;50.832;4.080;2023-05-10T06:21:15;14.10;99.90
20284;DHT22;10301;50.832;4.080;2023-05-10T06:23:41;14.20;99.90
20284;DHT22;10301;50.832;4.080;2023-05-10T06:26:07;14.30;99.90
20284;DHT22;10301;50.832;4.080;2023-05-10T06:28:33;14.30;99.30
20284;DHT22;10301;50.832;4.080;2023-05-10T06:30:59;14.20;99.40
20284;DHT22;10301;50.832;4.080;2023-05-10T06:33:25;14.10;99.90
20284;DHT22;10301;50.832;4.080;2023-05-10T06:35:51;14.00;99.90
20284;DHT22;10301;50.832;4.080;2023-05-10T06:38:17;13.90;99.90
20284;DHT22;10301;50.832;4.080;2023-05-10T06:40:43;14.00;99.90
20284;DHT22;10301;50.832;4.080;2023-05-10T06:43:09;14.00;99.90
20284;DHT22;10301;50.832;4.080;2023-05-10T06:45:34;14.00;99.90
20284;DHT22;10301;50.832;4.080;2023-05-10T06:48:00;14.00;99.90
20284;DHT22;10301;50.832;4.080;2023-05-10T06:50:26;14.00;99.90
20284;DHT22;10301;50.832;4.080;2023-05-10T06:52:52;14.10;99.90
20284;DHT22;10301;50.832;4.080;2023-05-10T06:55:17;14.10;99.60
20284;DHT22;10301;50.832;4.080;2023-05-10T06:57:43;14.00;99.90
20284;DHT22;10301;50.832;4.080;2023-05-10T07:00:09;14.00;99.90
20284;DHT22;10301;50.832;4.080;2023-05-10T07:02:35;14.00;99.90
20284;DHT22;10301;50.832;4.080;2023-05-10T07:05:01;14.00;99.90
20284;DHT22;10301;50.832;4.080;2023-05-10T07:07:27;13.90;99.90
20284;DHT22;10301;50.832;4.080;2023-05-10T07:09:53;13.90;99.90
20284;DHT22;10301;50.832;4.080;2023-05-10T07:12:19;14.00;99.90
20284;DHT22;10301;50.832;4.080;2023-05-10T07:14:45;14.00;99.90
20284;DHT22;10301;50.832;4.080;2023-05-10T07:17:11;14.00;99.50
20284;DHT22;10301;50.832;4.080;2023-05-10T07:19:36;14.00;99.50
20284;DHT22;10301;50.832;4.080;2023-05-10T07:22:02;14.00;99.90
20284;DHT22;10301;50.832;4.080;2023-05-10T07:24:28;13.90;99.00
20284;DHT22;10301;50.832;4.080;2023-05-10T07:26:54;13.70;99.90
20284;DHT22;10301;50.832;4.080;2023-05-10T07:29:19;13.70;99.90
20284;DHT22;10301;50.832;4.080;2023-05-10T07:31:45;13.70;99.90
20284;DHT22;10301;50.832;4.080;2023-05-10T07:34:10;13.90;99.90
20284;DHT22;10301;50.832;4.080;2023-05-10T07:36:36;13.90;99.80
20284;DHT22;10301;50.832;4.080;2023-05-10T07:39:02;13.90;99.90
20284;DHT22;10301;50.832;4.080;2023-05-10T07:41:28;14.00;98.70
20284;DHT22;10301;50.832;4.080;2023-05-10T07:43:54;13.90;98.70
20284;DHT22;10301;50.832;4.080;2023-05-10T07:46:20;13.50;99.90
20284;DHT22;10301;50.832;4.080;2023-05-10T07:48:46;13.60;99.90
20284;DHT22;10301;50.832;4.080;2023-05-10T07:51:11;13.70;99.90
20284;DHT22;10301;50.832;4.080;2023-05-10T07:53:37;13.40;99.90
20284;DHT22;10301;50.832;4.080;2023-05-10T07:56:29;13.40;99.90
20284;DHT22;10301;50.832;4.080;2023-05-10T07:58:55;13.50;99.90
20284;DHT22;10301;50.832;4.080;2023-05-10T08:01:22;13.70;99.90
20284;DHT22;10301;50.832;4.080;2023-05-10T08:03:48;13.60;99.90
20284;DHT22;10301;50.832;4.080;2023-05-10T08:06:14;13.70;99.90
20284;DHT22;10301;50.832;4.080;2023-05-10T08:08:41;13.70;99.90
20284;DHT22;10301;50.832;4.080;2023-05-10T08:11:07;13.40;99.90
20284;DHT22;10301;50.832;4.080;2023-05-10T08:13:33;13.60;99.90
20284;DHT22;10301;50.832;4.080;2023-05-10T08:15:59;13.90;99.90
20284;DHT22;10301;50.832;4.080;2023-05-10T08:18:24;13.90;99.90
20284;DHT22;10301;50.832;4.080;2023-05-10T08:20:50;13.80;99.90
20284;DHT22;10301;50.832;4.080;2023-05-10T08:23:16;13.90;99.70
20284;DHT22;10301;50.832;4.080;2023-05-10T08:25:41;14.10;97.30
20284;DHT22;10301;50.832;4.080;2023-05-10T08:28:07;14.10;96.70
20284;DHT22;10301;50.832;4.080;2023-05-10T08:30:33;14.20;96.40
20284;DHT22;10301;50.832;4.080;2023-05-10T08:32:58;14.00;97.00
20284;DHT22;10301;50.832;4.080;2023-05-10T08:35:24;14.10;99.00
20284;DHT22;10301;50.832;4.080;2023-05-10T08:37:50;14.10;99.50
20284;DHT22;10301;50.832;4.080;2023-05-10T08:40:19;14.20;98.40
20284;DHT22;10301;50.832;4.080;2023-05-10T08:42:56;14.40;96.50
20284;DHT22;10301;50.832;4.080;2023-05-10T08:45:24;14.20;97.00
20284;DHT22;10301;50.832;4.080;2023-05-10T08:47:53;14.00;97.40
20284;DHT22;10301;50.832;4.080;2023-05-10T08:50:20;14.10;97.70
20284;DHT22;10301;50.832;4.080;2023-05-10T08:52:48;14.20;97.60
20284;DHT22;10301;50.832;4.080;2023-05-10T08:55:18;14.40;97.20
20284;DHT22;10301;50.832;4.080;2023-05-10T08:57:44;14.50;97.50
20284;DHT22;10301;50.832;4.080;2023-05-10T09:00:11;14.80;95.00
20284;DHT22;10301;50.832;4.080;2023-05-10T09:02:37;14.90;93.30
20284;DHT22;10301;50.832;4.080;2023-05-10T09:05:03;14.90;93.50
20284;DHT22;10301;50.832;4.080;2023-05-10T09:07:30;15.00;93.30
20284;DHT22;10301;50.832;4.080;2023-05-10T09:09:56;15.00;92.00
20284;DHT22;10301;50.832;4.080;2023-05-10T09:12:23;14.90;93.00
20284;DHT22;10301;50.832;4.080;2023-05-10T09:14:50;14.90;93.30
20284;DHT22;10301;50.832;4.080;2023-05-10T09:17:17;14.90;93.00
20284;DHT22;10301;50.832;4.080;2023-05-10T09:19:45;14.90;92.00
20284;DHT22;10301;50.832;4.080;2023-05-10T09:22:10;14.80;93.70
20284;DHT22;10301;50.832;4.080;2023-05-10T09:24:36;14.70;94.30
20284;DHT22;10301;50.832;4.080;2023-05-10T09:27:07;14.70;93.00
20284;DHT22;10301;50.832;4.080;2023-05-10T09:29:43;14.60;94.60
20284;DHT22;10301;50.832;4.080;2023-05-10T09:32:08;14.50;95.00
20284;DHT22;10301;50.832;4.080;2023-05-10T09:34:35;14.50;96.20
20284;DHT22;10301;50.832;4.080;2023-05-10T09:37:05;14.60;96.10
20284;DHT22;10301;50.832;4.080;2023-05-10T09:39:35;14.20;98.80
20284;DHT22;10301;50.832;4.080;2023-05-10T09:42:06;14.20;99.90
20284;DHT22;10301;50.832;4.080;2023-05-10T09:44:33;14.30;99.90
20284;DHT22;10301;50.832;4.080;2023-05-10T09:46:59;14.30;99.40
20284;DHT22;10301;50.832;4.080;2023-05-10T09:49:26;14.20;99.90
20284;DHT22;10301;50.832;4.080;2023-05-10T09:52:05;14.20;99.90
20284;DHT22;10301;50.832;4.080;2023-05-10T09:54:32;14.30;99.90
20284;DHT22;10301;50.832;4.080;2023-05-10T09:56:58;14.20;99.90
20284;DHT22;10301;50.832;4.080;2023-05-10T09:59:28;14.20;99.90
20284;DHT22;10301;50.832;4.080;2023-05-10T10:01:58;14.30;99.90
20284;DHT22;10301;50.832;4.080;2023-05-10T10:04:25;14.10;99.90
20284;DHT22;10301;50.832;4.080;2023-05-10T10:07:04;14.10;99.90
20284;DHT22;10301;50.832;4.080;2023-05-10T10:09:30;14.10;99.90
20284;DHT22;10301;50.832;4.080;2023-05-10T10:11:56;14.40;99.90
20284;DHT22;10301;50.832;4.080;2023-05-10T10:14:23;14.60;99.60
20284;DHT22;10301;50.832;4.080;2023-05-10T10:16:51;14.60;97.30
20284;DHT22;10301;50.832;4.080;2023-05-10T10:19:21;14.70;99.90
20284;DHT22;10301;50.832;4.080;2023-05-10T10:21:48;14.80;98.20
20284;DHT22;10301;50.832;4.080;2023-05-10T10:24:14;14.90;99.00
20284;DHT22;10301;50.832;4.080;2023-05-10T10:26:41;14.80;97.20
20284;DHT22;10301;50.832;4.080;2023-05-10T10:29:24;14.70;99.90
20284;DHT22;10301;50.832;4.080;2023-05-10T10:36:49;15.70;96.50
20284;DHT22;10301;50.832;4.080;2023-05-10T10:39:15;15.40;94.70
20284;DHT22;10301;50.832;4.080;2023-05-10T10:41:53;15.30;96.90
20284;DHT22;10301;50.832;4.080;2023-05-10T10:44:22;15.50;96.10
20284;DHT22;10301;50.832;4.080;2023-05-10T10:49:49;15.60;92.80
20284;DHT22;10301;50.832;4.080;2023-05-10T10:57:24;15.40;94.50
20284;DHT22;10301;50.832;4.080;2023-05-10T10:59:53;15.60;95.10
20284;DHT22;10301;50.832;4.080;2023-05-10T11:02:44;15.80;95.20
20284;DHT22;10301;50.832;4.080;2023-05-10T11:07:58;16.50;84.70
20284;DHT22;10301;50.832;4.080;2023-05-10T11:10:25;16.30;83.10
20284;DHT22;10301;50.832;4.080;2023-05-10T11:15:17;16.00;90.70
20284;DHT22;10301;50.832;4.080;2023-05-10T11:17:43;16.10;86.90
20284;DHT22;10301;50.832;4.080;2023-05-10T11:20:10;16.70;70.00
20284;DHT22;10301;50.832;4.080;2023-05-10T11:22:52;16.70;69.00
20284;DHT22;10301;50.832;4.080;2023-05-10T11:25:18;16.70;66.60
20284;DHT22;10301;50.832;4.080;2023-05-10T11:27:44;16.70;71.40
20284;DHT22;10301;50.832;4.080;2023-05-10T11:30:11;15.90;79.60
20284;DHT22;10301;50.832;4.080;2023-05-10T11:32:40;16.30;73.00
20284;DHT22;10301;50.832;4.080;2023-05-10T11:35:10;16.10;76.60
20284;DHT22;10301;50.832;4.080;2023-05-10T11:37:38;16.30;72.80
20284;DHT22;10301;50.832;4.080;2023-05-10T11:40:08;16.50;67.80
20284;DHT22;10301;50.832;4.080;2023-05-10T11:42:39;16.90;59.80
20284;DHT22;10301;50.832;4.080;2023-05-10T11:45:05;16.90;57.40
20284;DHT22;10301;50.832;4.080;2023-05-10T11:47:31;16.90;62.10
20284;DHT22;10301;50.832;4.080;2023-05-10T11:49:57;16.70;67.90
20284;DHT22;10301;50.832;4.080;2023-05-10T11:52:23;17.10;60.60
20284;DHT22;10301;50.832;4.080;2023-05-10T11:54:53;16.80;63.50
20284;DHT22;10301;50.832;4.080;2023-05-10T11:57:20;17.20;58.80
20284;DHT22;10301;50.832;4.080;2023-05-10T11:59:46;17.60;46.30
20284;DHT22;10301;50.832;4.080;2023-05-10T12:02:13;17.70;42.80
20284;DHT22;10301;50.832;4.080;2023-05-10T12:04:39;17.30;46.40
20284;DHT22;10301;50.832;4.080;2023-05-10T12:07:05;17.50;45.40
20284;DHT22;10301;50.832;4.080;2023-05-10T12:09:31;17.60;44.70
20284;DHT22;10301;50.832;4.080;2023-05-10T12:11:57;17.80;44.90
20284;DHT22;10301;50.832;4.080;2023-05-10T12:14:22;18.00;34.80
20284;DHT22;10301;50.832;4.080;2023-05-10T12:16:49;18.10;36.40
20284;DHT22;10301;50.832;4.080;2023-05-10T12:19:18;18.10;32.10
20284;DHT22;10301;50.832;4.080;2023-05-10T12:21:45;18.00;30.30
20284;DHT22;10301;50.832;4.080;2023-05-10T12:24:11;18.00;32.50
20284;DHT22;10301;50.832;4.080;2023-05-10T12:26:38;17.90;37.40
20284;DHT22;10301;50.832;4.080;2023-05-10T12:29:18;17.80;43.00
20284;DHT22;10301;50.832;4.080;2023-05-10T12:31:54;17.50;47.70
20284;DHT22;10301;50.832;4.080;2023-05-10T12:34:30;17.60;45.60
20284;DHT22;10301;50.832;4.080;2023-05-10T12:36:56;17.70;44.10
20284;DHT22;10301;50.832;4.080;2023-05-10T12:39:22;17.70;44.90
20284;DHT22;10301;50.832;4.080;2023-05-10T12:41:48;17.60;47.10
20284;DHT22;10301;50.832;4.080;2023-05-10T12:44:14;17.60;52.00
20284;DHT22;10301;50.832;4.080;2023-05-10T12:46:40;17.80;42.10
20284;DHT22;10301;50.832;4.080;2023-05-10T12:49:06;17.80;40.20
20284;DHT22;10301;50.832;4.080;2023-05-10T12:51:31;18.10;38.30
20284;DHT22;10301;50.832;4.080;2023-05-10T12:53:57;18.20;31.10
20284;DHT22;10301;50.832;4.080;2023-05-10T12:56:23;18.30;30.10
20284;DHT22;10301;50.832;4.080;2023-05-10T12:58:48;18.30;33.70
20284;DHT22;10301;50.832;4.080;2023-05-10T13:01:14;18.30;34.50
20284;DHT22;10301;50.832;4.080;2023-05-10T13:03:40;18.20;39.60
20284;DHT22;10301;50.832;4.080;2023-05-10T13:06:06;18.20;34.90
20284;DHT22;10301;50.832;4.080;2023-05-10T13:08:32;18.50;37.90
20284;DHT22;10301;50.832;4.080;2023-05-10T13:11:02;18.60;33.80
20284;DHT22;10301;50.832;4.080;2023-05-10T13:13:28;18.70;31.90
20284;DHT22;10301;50.832;4.080;2023-05-10T13:15:53;18.90;36.40
20284;DHT22;10301;50.832;4.080;2023-05-10T13:18:19;18.40;40.40
20284;DHT22;10301;50.832;4.080;2023-05-10T13:20:44;18.20;51.50
20284;DHT22;10301;50.832;4.080;2023-05-10T13:23:10;18.40;38.00
20284;DHT22;10301;50.832;4.080;2023-05-10T13:25:36;18.60;30.00
20284;DHT22;10301;50.832;4.080;2023-05-10T13:28:02;18.70;30.80
20284;DHT22;10301;50.832;4.080;2023-05-10T13:30:28;18.40;41.40
20284;DHT22;10301;50.832;4.080;2023-05-10T13:32:54;18.30;47.20
20284;DHT22;10301;50.832;4.080;2023-05-10T13:35:20;18.40;48.90
20284;DHT22;10301;50.832;4.080;2023-05-10T13:37:46;18.60;39.40
20284;DHT22;10301;50.832;4.080;2023-05-10T13:40:11;18.50;40.20
20284;DHT22;10301;50.832;4.080;2023-05-10T13:42:37;18.60;43.40
20284;DHT22;10301;50.832;4.080;2023-05-10T13:45:03;18.60;44.90
20284;DHT22;10301;50.832;4.080;2023-05-10T13:47:29;18.50;45.20
20284;DHT22;10301;50.832;4.080;2023-05-10T13:49:55;18.40;43.90
20284;DHT22;10301;50.832;4.080;2023-05-10T13:52:21;18.40;38.10
20284;DHT22;10301;50.832;4.080;2023-05-10T13:54:47;18.40;43.40
20284;DHT22;10301;50.832;4.080;2023-05-10T13:57:12;18.50;43.90
20284;DHT22;10301;50.832;4.080;2023-05-10T13:59:39;18.60;44.40
20284;DHT22;10301;50.832;4.080;2023-05-10T14:02:05;18.60;43.60
20284;DHT22;10301;50.832;4.080;2023-05-10T14:04:31;18.60;36.40
20284;DHT22;10301;50.832;4.080;2023-05-10T14:06:57;18.50;44.60
20284;DHT22;10301;50.832;4.080;2023-05-10T14:09:23;17.90;66.10
20284;DHT22;10301;50.832;4.080;2023-05-10T14:11:48;18.00;54.60
20284;DHT22;10301;50.832;4.080;2023-05-10T14:14:14;18.20;51.50
20284;DHT22;10301;50.832;4.080;2023-05-10T14:16:44;18.20;50.40
20284;DHT22;10301;50.832;4.080;2023-05-10T14:19:10;17.70;56.70
20284;DHT22;10301;50.832;4.080;2023-05-10T14:21:36;17.50;65.60
20284;DHT22;10301;50.832;4.080;2023-05-10T14:24:01;17.30;71.10
20284;DHT22;10301;50.832;4.080;2023-05-10T14:26:27;17.10;69.00
20284;DHT22;10301;50.832;4.080;2023-05-10T14:28:53;16.70;78.60
20284;DHT22;10301;50.832;4.080;2023-05-10T14:31:19;16.20;67.40
20284;DHT22;10301;50.832;4.080;2023-05-10T14:33:46;15.90;59.10
20284;DHT22;10301;50.832;4.080;2023-05-10T14:36:12;15.50;66.30
20284;DHT22;10301;50.832;4.080;2023-05-10T14:38:39;15.20;73.10
20284;DHT22;10301;50.832;4.080;2023-05-10T14:41:05;15.20;79.60
20284;DHT22;10301;50.832;4.080;2023-05-10T14:43:31;15.10;86.10
20284;DHT22;10301;50.832;4.080;2023-05-10T14:45:57;15.10;87.00
20284;DHT22;10301;50.832;4.080;2023-05-10T14:48:22;15.10;83.10
20284;DHT22;10301;50.832;4.080;2023-05-10T14:50:48;15.30;80.70
20284;DHT22;10301;50.832;4.080;2023-05-10T14:53:15;15.40;80.10
20284;DHT22;10301;50.832;4.080;2023-05-10T14:55:41;15.50;80.10
20284;DHT22;10301;50.832;4.080;2023-05-10T14:58:06;15.60;77.30
20284;DHT22;10301;50.832;4.080;2023-05-10T15:00:32;15.70;78.10
20284;DHT22;10301;50.832;4.080;2023-05-10T15:02:58;15.70;75.40
20284;DHT22;10301;50.832;4.080;2023-05-10T15:05:23;15.90;73.70
20284;DHT22;10301;50.832;4.080;2023-05-10T15:07:49;16.00;69.50
20284;DHT22;10301;50.832;4.080;2023-05-10T15:10:15;16.00;63.80
20284;DHT22;10301;50.832;4.080;2023-05-10T15:12:41;16.10;65.00
20284;DHT22;10301;50.832;4.080;2023-05-10T15:15:07;16.30;58.50
20284;DHT22;10301;50.832;4.080;2023-05-10T15:17:33;16.50;56.10
20284;DHT22;10301;50.832;4.080;2023-05-10T15:19:59;16.60;58.20
20284;DHT22;10301;50.832;4.080;2023-05-10T15:22:25;16.70;53.70
20284;DHT22;10301;50.832;4.080;2023-05-10T15:24:51;16.80;55.30
20284;DHT22;10301;50.832;4.080;2023-05-10T15:27:16;16.80;52.30
20284;DHT22;10301;50.832;4.080;2023-05-10T15:29:42;16.80;52.60
20284;DHT22;10301;50.832;4.080;2023-05-10T15:32:08;16.80;51.90
20284;DHT22;10301;50.832;4.080;2023-05-10T15:34:34;16.80;57.10
20284;DHT22;10301;50.832;4.080;2023-05-10T15:37:01;16.80;60.40
20284;DHT22;10301;50.832;4.080;2023-05-10T15:39:26;16.80;67.20
20284;DHT22;10301;50.832;4.080;2023-05-10T15:41:52;16.90;67.50
20284;DHT22;10301;50.832;4.080;2023-05-10T15:44:18;16.90;71.30
20284;DHT22;10301;50.832;4.080;2023-05-10T15:46:44;17.00;72.70
20284;DHT22;10301;50.832;4.080;2023-05-10T15:49:09;17.20;73.30
20284;DHT22;10301;50.832;4.080;2023-05-10T15:51:35;17.30;70.60
20284;DHT22;10301;50.832;4.080;2023-05-10T15:54:01;17.40;70.80
20284;DHT22;10301;50.832;4.080;2023-05-10T15:56:31;17.40;69.90
20284;DHT22;10301;50.832;4.080;2023-05-10T15:58:58;17.40;70.30
20284;DHT22;10301;50.832;4.080;2023-05-10T16:01:23;17.40;70.50